sensor_id;sensor_type;location;lat;lon;timestamp;P1;durP1;ratioP1;P2;durP2;ratioP2
12880;SDS011;6508;53.786;9.996;2024-02-15T00:01:18;28.52;;;10.93;;
12880;SDS011;6508;53.786;9.996;2024-02-15T00:03:46;28.42;;;11.00;;
12880;SDS011;6508;53.786;9.996;2024-02-15T00:06:15;27.60;;;10.45;;
12880;SDS011;6508;53.786;9.996;2024-02-15T00:08:43;32.40;;;10.90;;
12880;SDS011;6508;53.786;9.996;2024-02-15T00:11:11;30.65;;;9.98;;
12880;SDS011;6508;53.786;9.996;2024-02-15T00:13:40;26.45;;;9.55;;
12880;SDS011;6508;53.786;9.996;2024-02-15T00:16:08;23.98;;;10.10;;
12880;SDS011;6508;53.786;9.996;2024-02-15T00:18:38;31.02;;;10.30;;
12880;SDS011;6508;53.786;9.996;2024-02-15T00:21:06;30.08;;;10.85;;
12880;SDS011;6508;53.786;9.996;2024-02-15T00:23:34;36.55;;;11.63;;
12880;SDS011;6508;53.786;9.996;2024-02-15T00:26:02;33.17;;;11.07;;
12880;SDS011;6508;53.786;9.996;2024-02-15T00:28:29;43.20;;;11.85;;
12880;SDS011;6508;53.786;9.996;2024-02-15T00:30:57;40.58;;;11.07;;
12880;SDS011;6508;53.786;9.996;2024-02-15T00:33:25;32.25;;;11.20;;
12880;SDS011;6508;53.786;9.996;2024-02-15T00:35:55;39.00;;;11.75;;
12880;SDS011;6508;53.786;9.996;2024-02-15T00:38:22;28.35;;;10.05;;
12880;SDS011;6508;53.786;9.996;2024-02-15T00:40:50;32.20;;;10.88;;
12880;SDS011;6508;53.786;9.996;2024-02-15T00:43:18;34.35;;;11.60;;
12880;SDS011;6508;53.786;9.996;2024-02-15T00:45:46;29.92;;;11.60;;
12880;SDS011;6508;53.786;9.996;2024-02-15T00:48:14;31.35;;;11.32;;
12880;SDS011;6508;53.786;9.996;2024-02-15T00:50:42;39.63;;;12.13;;
12880;SDS011;6508;53.786;9.996;2024-02-15T00:53:11;34.58;;;12.35;;
12880;SDS011;6508;53.786;9.996;2024-02-15T00:55:39;42.28;;;12.20;;
12880;SDS011;6508;53.786;9.996;2024-02-15T00:58:07;34.20;;;12.05;;
12880;SDS011;6508;53.786;9.996;2024-02-15T01:00:34;41.35;;;13.00;;
12880;SDS011;6508;53.786;9.996;2024-02-15T01:03:03;33.97;;;12.45;;
12880;SDS011;6508;53.786;9.996;2024-02-15T01:05:30;38.33;;;12.68;;
12880;SDS011;6508;53.786;9.996;2024-02-15T01:07:58;36.15;;;12.68;;
12880;SDS011;6508;53.786;9.996;2024-02-15T01:10:28;34.53;;;12.05;;
12880;SDS011;6508;53.786;9.996;2024-02-15T01:12:56;32.60;;;12.07;;
12880;SDS011;6508;53.786;9.996;2024-02-15T01:15:24;30.27;;;11.90;;
12880;SDS011;6508;53.786;9.996;2024-02-15T01:17:52;33.83;;;12.18;;
12880;SDS011;6508;53.786;9.996;2024-02-15T01:20:20;33.95;;;10.93;;
12880;SDS011;6508;53.786;9.996;2024-02-15T01:22:48;30.85;;;10.95;;
12880;SDS011;6508;53.786;9.996;2024-02-15T01:25:16;32.58;;;11.32;;
12880;SDS011;6508;53.786;9.996;2024-02-15T01:27:45;31.65;;;11.50;;
12880;SDS011;6508;53.786;9.996;2024-02-15T01:30:14;32.65;;;11.27;;
12880;SDS011;6508;53.786;9.996;2024-02-15T01:32:43;36.35;;;11.02;;
12880;SDS011;6508;53.786;9.996;2024-02-15T01:38:13;28.77;;;10.32;;
12880;SDS011;6508;53.786;9.996;2024-02-15T01:40:41;34.83;;;12.32;;
12880;SDS011;6508;53.786;9.996;2024-02-15T01:43:10;33.30;;;11.60;;
12880;SDS011;6508;53.786;9.996;2024-02-15T01:45:38;32.88;;;11.55;;
12880;SDS011;6508;53.786;9.996;2024-02-15T01:48:07;35.08;;;11.82;;
12880;SDS011;6508;53.786;9.996;2024-02-15T01:50:35;35.25;;;12.23;;
12880;SDS011;6508;53.786;9.996;2024-02-15T01:53:03;36.50;;;12.27;;
12880;SDS011;6508;53.786;9.996;2024-02-15T01:55:32;37.70;;;12.07;;
12880;SDS011;6508;53.786;9.996;2024-02-15T01:58:00;35.40;;;12.00;;
12880;SDS011;6508;53.786;9.996;2024-02-15T02:00:30;39.88;;;11.85;;
12880;SDS011;6508;53.786;9.996;2024-02-15T02:02:58;28.42;;;11.30;;
12880;SDS011;6508;53.786;9.996;2024-02-15T02:05:29;32.28;;;10.95;;
12880;SDS011;6508;53.786;9.996;2024-02-15T02:07:58;30.00;;;10.32;;
12880;SDS011;6508;53.786;9.996;2024-02-15T02:10:30;28.42;;;10.15;;
12880;SDS011;6508;53.786;9.996;2024-02-15T02:13:00;29.15;;;11.32;;
12880;SDS011;6508;53.786;9.996;2024-02-15T02:15:30;30.27;;;10.57;;
12880;SDS011;6508;53.786;9.996;2024-02-15T02:17:58;36.22;;;11.35;;
12880;SDS011;6508;53.786;9.996;2024-02-15T02:20:27;32.70;;;12.02;;
12880;SDS011;6508;53.786;9.996;2024-02-15T02:22:57;39.83;;;11.05;;
12880;SDS011;6508;53.786;9.996;2024-02-15T02:25:29;33.33;;;11.90;;
12880;SDS011;6508;53.786;9.996;2024-02-15T02:27:56;34.22;;;11.73;;
12880;SDS011;6508;53.786;9.996;2024-02-15T02:30:24;38.95;;;13.32;;
12880;SDS011;6508;53.786;9.996;2024-02-15T02:32:55;35.83;;;13.65;;
12880;SDS011;6508;53.786;9.996;2024-02-15T02:35:25;39.78;;;12.95;;
12880;SDS011;6508;53.786;9.996;2024-02-15T02:37:53;47.33;;;14.13;;
12880;SDS011;6508;53.786;9.996;2024-02-15T02:40:21;35.75;;;12.38;;
12880;SDS011;6508;53.786;9.996;2024-02-15T02:42:51;42.20;;;13.82;;
12880;SDS011;6508;53.786;9.996;2024-02-15T02:45:19;44.10;;;14.80;;
12880;SDS011;6508;53.786;9.996;2024-02-15T02:47:49;54.60;;;15.70;;
12880;SDS011;6508;53.786;9.996;2024-02-15T02:50:20;43.25;;;16.02;;
12880;SDS011;6508;53.786;9.996;2024-02-15T02:52:49;48.53;;;15.82;;
12880;SDS011;6508;53.786;9.996;2024-02-15T02:55:16;55.45;;;16.48;;
12880;SDS011;6508;53.786;9.996;2024-02-15T02:57:44;44.17;;;15.35;;
12880;SDS011;6508;53.786;9.996;2024-02-15T03:00:14;51.15;;;16.02;;
12880;SDS011;6508;53.786;9.996;2024-02-15T03:02:43;43.88;;;14.40;;
12880;SDS011;6508;53.786;9.996;2024-02-15T03:05:11;53.33;;;14.52;;
12880;SDS011;6508;53.786;9.996;2024-02-15T03:07:39;47.90;;;14.35;;
12880;SDS011;6508;53.786;9.996;2024-02-15T03:10:08;45.55;;;14.65;;
12880;SDS011;6508;53.786;9.996;2024-02-15T03:12:41;45.55;;;14.70;;
12880;SDS011;6508;53.786;9.996;2024-02-15T03:15:13;49.42;;;14.25;;
12880;SDS011;6508;53.786;9.996;2024-02-15T03:17:43;37.20;;;12.98;;
12880;SDS011;6508;53.786;9.996;2024-02-15T03:20:11;43.92;;;13.57;;
12880;SDS011;6508;53.786;9.996;2024-02-15T03:22:50;34.35;;;12.68;;
12880;SDS011;6508;53.786;9.996;2024-02-15T03:25:18;46.50;;;13.75;;
12880;SDS011;6508;53.786;9.996;2024-02-15T03:27:50;44.58;;;13.60;;
12880;SDS011;6508;53.786;9.996;2024-02-15T03:30:20;47.83;;;14.82;;
12880;SDS011;6508;53.786;9.996;2024-02-15T03:32:50;48.28;;;14.98;;
12880;SDS011;6508;53.786;9.996;2024-02-15T03:35:19;51.78;;;16.05;;
12880;SDS011;6508;53.786;9.996;2024-02-15T03:37:49;59.38;;;16.65;;
12880;SDS011;6508;53.786;9.996;2024-02-15T03:40:17;59.13;;;17.73;;
12880;SDS011;6508;53.786;9.996;2024-02-15T03:42:45;62.75;;;18.17;;
12880;SDS011;6508;53.786;9.996;2024-02-15T03:45:14;52.17;;;16.55;;
12880;SDS011;6508;53.786;9.996;2024-02-15T03:47:43;63.80;;;17.60;;
12880;SDS011;6508;53.786;9.996;2024-02-15T03:50:12;55.65;;;16.88;;
12880;SDS011;6508;53.786;9.996;2024-02-15T03:52:41;76.32;;;18.75;;
12880;SDS011;6508;53.786;9.996;2024-02-15T03:55:09;68.32;;;18.33;;
12880;SDS011;6508;53.786;9.996;2024-02-15T03:57:37;71.05;;;18.40;;
12880;SDS011;6508;53.786;9.996;2024-02-15T04:00:07;65.68;;;18.77;;
12880;SDS011;6508;53.786;9.996;2024-02-15T04:02:38;59.97;;;17.58;;
12880;SDS011;6508;53.786;9.996;2024-02-15T04:05:09;68.90;;;18.77;;
12880;SDS011;6508;53.786;9.996;2024-02-15T04:07:39;66.93;;;18.77;;
12880;SDS011;6508;53.786;9.996;2024-02-15T04:10:07;60.95;;;17.58;;
12880;SDS011;6508;53.786;9.996;2024-02-15T04:12:47;69.53;;;19.20;;
12880;SDS011;6508;53.786;9.996;2024-02-15T04:15:15;59.55;;;18.02;;
12880;SDS011;6508;53.786;9.996;2024-02-15T04:17:44;72.05;;;19.08;;
12880;SDS011;6508;53.786;9.996;2024-02-15T04:20:14;67.70;;;18.65;;
12880;SDS011;6508;53.786;9.996;2024-02-15T04:22:43;61.33;;;19.25;;
12880;SDS011;6508;53.786;9.996;2024-02-15T04:25:13;73.38;;;17.90;;
12880;SDS011;6508;53.786;9.996;2024-02-15T04:27:45;80.05;;;20.27;;
12880;SDS011;6508;53.786;9.996;2024-02-15T04:30:13;73.97;;;19.73;;
12880;SDS011;6508;53.786;9.996;2024-02-15T04:32:42;73.50;;;19.05;;
12880;SDS011;6508;53.786;9.996;2024-02-15T04:35:10;80.78;;;19.35;;
12880;SDS011;6508;53.786;9.996;2024-02-15T04:37:41;76.40;;;19.33;;
12880;SDS011;6508;53.786;9.996;2024-02-15T04:40:10;72.10;;;20.08;;
12880;SDS011;6508;53.786;9.996;2024-02-15T04:42:39;72.18;;;18.88;;
12880;SDS011;6508;53.786;9.996;2024-02-15T04:45:11;73.10;;;19.40;;
12880;SDS011;6508;53.786;9.996;2024-02-15T04:47:54;80.32;;;20.48;;
12880;SDS011;6508;53.786;9.996;2024-02-15T04:50:23;79.78;;;20.17;;
12880;SDS011;6508;53.786;9.996;2024-02-15T04:52:54;79.97;;;20.73;;
12880;SDS011;6508;53.786;9.996;2024-02-15T04:55:22;74.03;;;21.00;;
12880;SDS011;6508;53.786;9.996;2024-02-15T04:57:49;83.07;;;20.08;;
12880;SDS011;6508;53.786;9.996;2024-02-15T05:00:22;72.80;;;20.42;;
12880;SDS011;6508;53.786;9.996;2024-02-15T05:02:49;71.03;;;20.17;;
12880;SDS011;6508;53.786;9.996;2024-02-15T05:05:17;73.22;;;20.40;;
12880;SDS011;6508;53.786;9.996;2024-02-15T05:07:45;76.03;;;20.55;;
12880;SDS011;6508;53.786;9.996;2024-02-15T05:10:16;80.53;;;20.40;;
12880;SDS011;6508;53.786;9.996;2024-02-15T05:12:44;78.70;;;19.85;;
12880;SDS011;6508;53.786;9.996;2024-02-15T05:15:14;80.65;;;20.05;;
12880;SDS011;6508;53.786;9.996;2024-02-15T05:17:44;72.25;;;19.65;;
12880;SDS011;6508;53.786;9.996;2024-02-15T05:20:12;90.18;;;21.13;;
12880;SDS011;6508;53.786;9.996;2024-02-15T05:22:41;81.45;;;20.88;;
12880;SDS011;6508;53.786;9.996;2024-02-15T05:25:17;95.00;;;19.45;;
12880;SDS011;6508;53.786;9.996;2024-02-15T05:27:52;72.55;;;19.48;;
12880;SDS011;6508;53.786;9.996;2024-02-15T05:30:22;66.25;;;18.38;;
12880;SDS011;6508;53.786;9.996;2024-02-15T05:32:50;79.05;;;20.95;;
12880;SDS011;6508;53.786;9.996;2024-02-15T05:35:20;71.07;;;18.63;;
12880;SDS011;6508;53.786;9.996;2024-02-15T05:37:47;80.93;;;19.33;;
12880;SDS011;6508;53.786;9.996;2024-02-15T05:40:15;74.63;;;17.98;;
12880;SDS011;6508;53.786;9.996;2024-02-15T05:42:45;66.40;;;17.83;;
12880;SDS011;6508;53.786;9.996;2024-02-15T05:48:04;76.82;;;17.55;;
12880;SDS011;6508;53.786;9.996;2024-02-15T05:50:34;69.75;;;17.52;;
12880;SDS011;6508;53.786;9.996;2024-02-15T05:53:03;77.57;;;17.63;;
12880;SDS011;6508;53.786;9.996;2024-02-15T05:55:31;86.78;;;18.52;;
12880;SDS011;6508;53.786;9.996;2024-02-15T05:58:03;72.50;;;17.48;;
12880;SDS011;6508;53.786;9.996;2024-02-15T06:00:31;69.25;;;17.15;;
12880;SDS011;6508;53.786;9.996;2024-02-15T06:03:00;75.00;;;18.70;;
12880;SDS011;6508;53.786;9.996;2024-02-15T06:05:29;62.60;;;17.77;;
12880;SDS011;6508;53.786;9.996;2024-02-15T06:07:57;70.57;;;17.63;;
12880;SDS011;6508;53.786;9.996;2024-02-15T06:10:25;73.60;;;17.83;;
12880;SDS011;6508;53.786;9.996;2024-02-15T06:12:56;83.32;;;20.20;;
12880;SDS011;6508;53.786;9.996;2024-02-15T06:15:25;81.68;;;19.67;;
12880;SDS011;6508;53.786;9.996;2024-02-15T06:17:53;66.57;;;17.58;;
12880;SDS011;6508;53.786;9.996;2024-02-15T06:20:20;80.45;;;20.02;;
12880;SDS011;6508;53.786;9.996;2024-02-15T06:22:49;74.93;;;19.17;;
12880;SDS011;6508;53.786;9.996;2024-02-15T06:25:18;77.07;;;20.60;;
12880;SDS011;6508;53.786;9.996;2024-02-15T06:27:48;79.00;;;19.52;;
12880;SDS011;6508;53.786;9.996;2024-02-15T06:30:26;74.30;;;18.80;;
12880;SDS011;6508;53.786;9.996;2024-02-15T06:33:11;65.15;;;17.20;;
12880;SDS011;6508;53.786;9.996;2024-02-15T06:35:56;67.15;;;17.52;;
12880;SDS011;6508;53.786;9.996;2024-02-15T06:38:41;65.85;;;17.92;;
12880;SDS011;6508;53.786;9.996;2024-02-15T06:41:27;78.63;;;19.45;;
12880;SDS011;6508;53.786;9.996;2024-02-15T06:43:55;71.15;;;17.77;;
12880;SDS011;6508;53.786;9.996;2024-02-15T06:46:25;75.00;;;18.33;;
12880;SDS011;6508;53.786;9.996;2024-02-15T06:48:52;67.43;;;17.85;;
12880;SDS011;6508;53.786;9.996;2024-02-15T06:51:21;60.28;;;17.77;;
12880;SDS011;6508;53.786;9.996;2024-02-15T06:53:51;68.05;;;19.00;;
12880;SDS011;6508;53.786;9.996;2024-02-15T06:56:22;70.75;;;19.02;;
12880;SDS011;6508;53.786;9.996;2024-02-15T06:58:51;69.93;;;19.58;;
12880;SDS011;6508;53.786;9.996;2024-02-15T07:01:20;71.63;;;18.00;;
12880;SDS011;6508;53.786;9.996;2024-02-15T07:03:49;79.88;;;19.85;;
12880;SDS011;6508;53.786;9.996;2024-02-15T07:06:19;66.78;;;19.90;;
12880;SDS011;6508;53.786;9.996;2024-02-15T07:08:48;71.85;;;19.63;;
12880;SDS011;6508;53.786;9.996;2024-02-15T07:11:17;68.95;;;20.35;;
12880;SDS011;6508;53.786;9.996;2024-02-15T07:13:45;76.53;;;19.27;;
12880;SDS011;6508;53.786;9.996;2024-02-15T07:16:12;69.22;;;19.58;;
12880;SDS011;6508;53.786;9.996;2024-02-15T07:18:41;78.00;;;20.17;;
12880;SDS011;6508;53.786;9.996;2024-02-15T07:21:11;71.38;;;19.17;;
12880;SDS011;6508;53.786;9.996;2024-02-15T07:23:40;62.72;;;17.48;;
12880;SDS011;6508;53.786;9.996;2024-02-15T07:26:08;71.15;;;19.45;;
12880;SDS011;6508;53.786;9.996;2024-02-15T07:28:39;73.22;;;20.70;;
12880;SDS011;6508;53.786;9.996;2024-02-15T07:31:07;74.97;;;21.10;;
12880;SDS011;6508;53.786;9.996;2024-02-15T07:33:35;82.18;;;21.17;;
12880;SDS011;6508;53.786;9.996;2024-02-15T07:36:03;79.85;;;21.13;;
12880;SDS011;6508;53.786;9.996;2024-02-15T07:38:32;86.47;;;20.35;;
12880;SDS011;6508;53.786;9.996;2024-02-15T07:41:01;96.78;;;21.25;;
12880;SDS011;6508;53.786;9.996;2024-02-15T07:43:29;91.18;;;20.95;;
12880;SDS011;6508;53.786;9.996;2024-02-15T07:45:57;93.68;;;21.70;;
12880;SDS011;6508;53.786;9.996;2024-02-15T07:48:24;83.05;;;21.75;;
12880;SDS011;6508;53.786;9.996;2024-02-15T07:50:53;88.20;;;20.95;;
12880;SDS011;6508;53.786;9.996;2024-02-15T07:53:21;94.03;;;22.40;;
12880;SDS011;6508;53.786;9.996;2024-02-15T07:55:50;111.07;;;22.23;;
12880;SDS011;6508;53.786;9.996;2024-02-15T07:58:19;88.35;;;21.15;;
12880;SDS011;6508;53.786;9.996;2024-02-15T08:00:48;87.88;;;21.35;;
12880;SDS011;6508;53.786;9.996;2024-02-15T08:03:15;97.85;;;22.15;;
12880;SDS011;6508;53.786;9.996;2024-02-15T08:05:43;81.28;;;20.67;;
12880;SDS011;6508;53.786;9.996;2024-02-15T08:08:11;89.85;;;21.88;;
12880;SDS011;6508;53.786;9.996;2024-02-15T08:10:39;86.20;;;20.50;;
12880;SDS011;6508;53.786;9.996;2024-02-15T08:13:09;77.78;;;20.52;;
12880;SDS011;6508;53.786;9.996;2024-02-15T08:15:37;81.45;;;20.75;;
12880;SDS011;6508;53.786;9.996;2024-02-15T08:18:05;84.10;;;21.13;;
12880;SDS011;6508;53.786;9.996;2024-02-15T08:20:36;74.25;;;18.95;;
12880;SDS011;6508;53.786;9.996;2024-02-15T08:23:03;73.93;;;20.00;;
12880;SDS011;6508;53.786;9.996;2024-02-15T08:25:31;88.15;;;19.45;;
12880;SDS011;6508;53.786;9.996;2024-02-15T08:27:59;85.85;;;20.55;;
12880;SDS011;6508;53.786;9.996;2024-02-15T08:30:33;70.10;;;18.75;;
12880;SDS011;6508;53.786;9.996;2024-02-15T08:33:01;68.70;;;19.35;;
12880;SDS011;6508;53.786;9.996;2024-02-15T08:35:30;74.10;;;17.48;;
12880;SDS011;6508;53.786;9.996;2024-02-15T08:38:00;69.65;;;19.13;;
12880;SDS011;6508;53.786;9.996;2024-02-15T08:40:31;67.47;;;18.83;;
12880;SDS011;6508;53.786;9.996;2024-02-15T08:42:59;80.28;;;18.88;;
12880;SDS011;6508;53.786;9.996;2024-02-15T08:45:27;66.82;;;18.15;;
12880;SDS011;6508;53.786;9.996;2024-02-15T08:47:56;56.60;;;16.58;;
12880;SDS011;6508;53.786;9.996;2024-02-15T08:50:24;62.85;;;16.98;;
12880;SDS011;6508;53.786;9.996;2024-02-15T08:52:52;62.42;;;17.77;;
12880;SDS011;6508;53.786;9.996;2024-02-15T08:55:20;63.38;;;17.98;;
12880;SDS011;6508;53.786;9.996;2024-02-15T08:57:51;64.47;;;16.50;;
12880;SDS011;6508;53.786;9.996;2024-02-15T09:00:19;59.08;;;15.77;;
12880;SDS011;6508;53.786;9.996;2024-02-15T09:02:47;59.00;;;15.98;;
12880;SDS011;6508;53.786;9.996;2024-02-15T09:05:17;61.90;;;15.68;;
12880;SDS011;6508;53.786;9.996;2024-02-15T09:07:45;62.38;;;17.05;;
12880;SDS011;6508;53.786;9.996;2024-02-15T09:10:15;55.85;;;16.52;;
12880;SDS011;6508;53.786;9.996;2024-02-15T09:12:44;61.28;;;15.05;;
12880;SDS011;6508;53.786;9.996;2024-02-15T09:15:14;52.60;;;15.45;;
12880;SDS011;6508;53.786;9.996;2024-02-15T09:17:43;53.70;;;15.93;;
12880;SDS011;6508;53.786;9.996;2024-02-15T09:20:12;54.92;;;16.35;;
12880;SDS011;6508;53.786;9.996;2024-02-15T09:22:44;63.63;;;15.77;;
12880;SDS011;6508;53.786;9.996;2024-02-15T09:25:12;54.53;;;16.05;;
12880;SDS011;6508;53.786;9.996;2024-02-15T09:27:40;54.75;;;15.73;;
12880;SDS011;6508;53.786;9.996;2024-02-15T09:30:08;61.97;;;16.55;;
12880;SDS011;6508;53.786;9.996;2024-02-15T09:32:36;67.45;;;17.13;;
12880;SDS011;6508;53.786;9.996;2024-02-15T09:35:05;61.47;;;17.70;;
12880;SDS011;6508;53.786;9.996;2024-02-15T09:37:34;57.78;;;16.40;;
12880;SDS011;6508;53.786;9.996;2024-02-15T09:40:07;53.08;;;16.50;;
12880;SDS011;6508;53.786;9.996;2024-02-15T09:42:36;61.47;;;18.10;;
12880;SDS011;6508;53.786;9.996;2024-02-15T09:45:05;60.35;;;16.48;;
12880;SDS011;6508;53.786;9.996;2024-02-15T09:47:34;65.72;;;17.45;;
12880;SDS011;6508;53.786;9.996;2024-02-15T09:50:04;63.35;;;17.15;;
12880;SDS011;6508;53.786;9.996;2024-02-15T09:52:33;54.47;;;17.55;;
12880;SDS011;6508;53.786;9.996;2024-02-15T09:55:02;62.90;;;18.05;;
12880;SDS011;6508;53.786;9.996;2024-02-15T09:57:31;55.42;;;16.45;;
12880;SDS011;6508;53.786;9.996;2024-02-15T09:59:59;61.08;;;17.98;;
12880;SDS011;6508;53.786;9.996;2024-02-15T10:02:29;57.83;;;17.05;;
12880;SDS011;6508;53.786;9.996;2024-02-15T10:04:58;60.65;;;16.77;;
12880;SDS011;6508;53.786;9.996;2024-02-15T10:07:26;53.58;;;16.55;;
12880;SDS011;6508;53.786;9.996;2024-02-15T10:09:54;56.33;;;17.65;;
12880;SDS011;6508;53.786;9.996;2024-02-15T10:12:29;59.85;;;17.75;;
12880;SDS011;6508;53.786;9.996;2024-02-15T10:15:05;51.63;;;16.50;;
12880;SDS011;6508;53.786;9.996;2024-02-15T10:17:34;60.60;;;18.52;;
12880;SDS011;6508;53.786;9.996;2024-02-15T10:20:05;57.58;;;17.83;;
12880;SDS011;6508;53.786;9.996;2024-02-15T10:22:33;50.75;;;16.92;;
12880;SDS011;6508;53.786;9.996;2024-02-15T10:25:10;53.17;;;17.02;;
12880;SDS011;6508;53.786;9.996;2024-02-15T10:27:37;58.17;;;18.48;;
12880;SDS011;6508;53.786;9.996;2024-02-15T10:30:15;61.42;;;18.83;;
12880;SDS011;6508;53.786;9.996;2024-02-15T10:32:43;59.83;;;19.92;;
12880;SDS011;6508;53.786;9.996;2024-02-15T10:35:18;55.67;;;17.98;;
12880;SDS011;6508;53.786;9.996;2024-02-15T10:37:47;52.25;;;17.85;;
12880;SDS011;6508;53.786;9.996;2024-02-15T10:40:19;50.42;;;16.92;;
12880;SDS011;6508;53.786;9.996;2024-02-15T10:42:47;44.53;;;15.75;;
12880;SDS011;6508;53.786;9.996;2024-02-15T10:45:17;39.35;;;14.95;;
12880;SDS011;6508;53.786;9.996;2024-02-15T10:47:46;44.75;;;15.48;;
12880;SDS011;6508;53.786;9.996;2024-02-15T10:50:14;46.78;;;16.05;;
12880;SDS011;6508;53.786;9.996;2024-02-15T10:52:44;41.28;;;16.60;;
12880;SDS011;6508;53.786;9.996;2024-02-15T10:55:15;46.28;;;17.58;;
12880;SDS011;6508;53.786;9.996;2024-02-15T10:57:46;50.40;;;17.63;;
12880;SDS011;6508;53.786;9.996;2024-02-15T11:00:15;43.35;;;17.13;;
12880;SDS011;6508;53.786;9.996;2024-02-15T11:02:50;40.85;;;16.00;;
12880;SDS011;6508;53.786;9.996;2024-02-15T11:05:21;48.70;;;18.25;;
12880;SDS011;6508;53.786;9.996;2024-02-15T11:07:50;50.47;;;18.90;;
12880;SDS011;6508;53.786;9.996;2024-02-15T11:10:20;45.22;;;17.75;;
12880;SDS011;6508;53.786;9.996;2024-02-15T11:12:50;45.60;;;18.40;;
12880;SDS011;6508;53.786;9.996;2024-02-15T11:18:02;54.45;;;20.60;;
12880;SDS011;6508;53.786;9.996;2024-02-15T11:20:48;46.05;;;18.58;;
12880;SDS011;6508;53.786;9.996;2024-02-15T11:23:26;43.70;;;18.70;;
12880;SDS011;6508;53.786;9.996;2024-02-15T11:26:03;43.63;;;18.30;;
12880;SDS011;6508;53.786;9.996;2024-02-15T11:28:38;42.78;;;17.88;;
12880;SDS011;6508;53.786;9.996;2024-02-15T11:31:09;48.83;;;18.92;;
12880;SDS011;6508;53.786;9.996;2024-02-15T11:33:43;42.53;;;18.92;;
12880;SDS011;6508;53.786;9.996;2024-02-15T11:36:12;51.80;;;18.77;;
12880;SDS011;6508;53.786;9.996;2024-02-15T11:38:41;42.47;;;18.65;;
12880;SDS011;6508;53.786;9.996;2024-02-15T11:41:10;43.95;;;19.77;;
12880;SDS011;6508;53.786;9.996;2024-02-15T11:43:51;43.22;;;19.23;;
12880;SDS011;6508;53.786;9.996;2024-02-15T11:46:26;41.55;;;19.52;;
12880;SDS011;6508;53.786;9.996;2024-02-15T11:48:58;41.70;;;18.23;;
12880;SDS011;6508;53.786;9.996;2024-02-15T11:51:29;44.03;;;20.00;;
12880;SDS011;6508;53.786;9.996;2024-02-15T11:53:58;44.45;;;19.30;;
12880;SDS011;6508;53.786;9.996;2024-02-15T11:56:26;46.50;;;18.40;;
12880;SDS011;6508;53.786;9.996;2024-02-15T11:59:04;44.20;;;19.73;;
12880;SDS011;6508;53.786;9.996;2024-02-15T12:01:32;46.60;;;19.90;;
12880;SDS011;6508;53.786;9.996;2024-02-15T12:04:19;47.70;;;20.17;;
12880;SDS011;6508;53.786;9.996;2024-02-15T12:07:05;50.13;;;20.70;;
12880;SDS011;6508;53.786;9.996;2024-02-15T12:09:50;50.72;;;20.15;;
12880;SDS011;6508;53.786;9.996;2024-02-15T12:12:54;51.10;;;20.75;;
12880;SDS011;6508;53.786;9.996;2024-02-15T12:15:39;50.85;;;22.88;;
12880;SDS011;6508;53.786;9.996;2024-02-15T12:18:25;47.92;;;19.75;;
12880;SDS011;6508;53.786;9.996;2024-02-15T12:21:11;44.22;;;18.58;;
12880;SDS011;6508;53.786;9.996;2024-02-15T12:23:40;50.30;;;20.38;;
12880;SDS011;6508;53.786;9.996;2024-02-15T12:26:08;50.28;;;20.08;;
12880;SDS011;6508;53.786;9.996;2024-02-15T12:28:37;41.75;;;19.65;;
12880;SDS011;6508;53.786;9.996;2024-02-15T12:31:10;46.33;;;19.85;;
12880;SDS011;6508;53.786;9.996;2024-02-15T12:33:39;46.85;;;19.17;;
12880;SDS011;6508;53.786;9.996;2024-02-15T12:36:10;38.78;;;18.80;;
12880;SDS011;6508;53.786;9.996;2024-02-15T12:38:38;39.05;;;18.42;;
12880;SDS011;6508;53.786;9.996;2024-02-15T12:41:17;37.88;;;18.05;;
12880;SDS011;6508;53.786;9.996;2024-02-15T12:43:45;35.55;;;17.60;;
12880;SDS011;6508;53.786;9.996;2024-02-15T12:46:17;40.03;;;17.70;;
12880;SDS011;6508;53.786;9.996;2024-02-15T12:48:45;35.35;;;16.80;;
12880;SDS011;6508;53.786;9.996;2024-02-15T12:51:14;34.08;;;15.50;;
12880;SDS011;6508;53.786;9.996;2024-02-15T12:53:42;32.40;;;16.63;;
12880;SDS011;6508;53.786;9.996;2024-02-15T12:56:10;31.67;;;15.70;;
12880;SDS011;6508;53.786;9.996;2024-02-15T12:58:47;35.85;;;16.23;;
12880;SDS011;6508;53.786;9.996;2024-02-15T13:01:15;36.70;;;15.75;;
12880;SDS011;6508;53.786;9.996;2024-02-15T13:03:43;29.77;;;16.15;;
12880;SDS011;6508;53.786;9.996;2024-02-15T13:06:11;33.50;;;15.05;;
12880;SDS011;6508;53.786;9.996;2024-02-15T13:08:40;30.35;;;14.80;;
12880;SDS011;6508;53.786;9.996;2024-02-15T13:11:08;30.45;;;15.48;;
12880;SDS011;6508;53.786;9.996;2024-02-15T13:13:39;31.50;;;15.20;;
12880;SDS011;6508;53.786;9.996;2024-02-15T13:16:08;27.95;;;13.57;;
12880;SDS011;6508;53.786;9.996;2024-02-15T13:18:36;26.30;;;13.68;;
12880;SDS011;6508;53.786;9.996;2024-02-15T13:21:04;28.38;;;14.00;;
12880;SDS011;6508;53.786;9.996;2024-02-15T13:23:32;24.08;;;13.63;;
12880;SDS011;6508;53.786;9.996;2024-02-15T13:26:04;29.17;;;14.40;;
12880;SDS011;6508;53.786;9.996;2024-02-15T13:28:31;30.85;;;14.15;;
12880;SDS011;6508;53.786;9.996;2024-02-15T13:31:00;26.42;;;13.80;;
12880;SDS011;6508;53.786;9.996;2024-02-15T13:33:27;24.55;;;13.07;;
12880;SDS011;6508;53.786;9.996;2024-02-15T13:35:58;24.48;;;13.63;;
12880;SDS011;6508;53.786;9.996;2024-02-15T13:38:26;29.05;;;13.85;;
12880;SDS011;6508;53.786;9.996;2024-02-15T13:40:54;24.20;;;13.73;;
12880;SDS011;6508;53.786;9.996;2024-02-15T13:43:25;23.38;;;12.82;;
12880;SDS011;6508;53.786;9.996;2024-02-15T13:45:53;27.63;;;13.55;;
12880;SDS011;6508;53.786;9.996;2024-02-15T13:48:21;22.50;;;13.48;;
12880;SDS011;6508;53.786;9.996;2024-02-15T13:50:51;27.10;;;14.20;;
12880;SDS011;6508;53.786;9.996;2024-02-15T13:53:19;26.83;;;14.30;;
12880;SDS011;6508;53.786;9.996;2024-02-15T13:55:49;23.48;;;14.38;;
12880;SDS011;6508;53.786;9.996;2024-02-15T13:58:18;26.63;;;15.00;;
12880;SDS011;6508;53.786;9.996;2024-02-15T14:00:47;31.98;;;15.25;;
12880;SDS011;6508;53.786;9.996;2024-02-15T14:03:15;29.98;;;15.50;;
12880;SDS011;6508;53.786;9.996;2024-02-15T14:05:45;32.03;;;15.70;;
12880;SDS011;6508;53.786;9.996;2024-02-15T14:08:15;31.15;;;15.98;;
12880;SDS011;6508;53.786;9.996;2024-02-15T14:10:42;28.73;;;16.10;;
12880;SDS011;6508;53.786;9.996;2024-02-15T14:13:11;26.90;;;15.60;;
12880;SDS011;6508;53.786;9.996;2024-02-15T14:15:39;26.42;;;15.85;;
12880;SDS011;6508;53.786;9.996;2024-02-15T14:18:09;32.85;;;17.58;;
12880;SDS011;6508;53.786;9.996;2024-02-15T14:20:40;29.25;;;17.02;;
12880;SDS011;6508;53.786;9.996;2024-02-15T14:23:10;33.13;;;17.23;;
12880;SDS011;6508;53.786;9.996;2024-02-15T14:25:41;37.05;;;18.17;;
12880;SDS011;6508;53.786;9.996;2024-02-15T14:28:09;31.13;;;17.30;;
12880;SDS011;6508;53.786;9.996;2024-02-15T14:30:36;40.25;;;19.58;;
12880;SDS011;6508;53.786;9.996;2024-02-15T14:33:23;35.53;;;18.05;;
12880;SDS011;6508;53.786;9.996;2024-02-15T14:36:00;43.00;;;20.10;;
12880;SDS011;6508;53.786;9.996;2024-02-15T14:38:28;35.72;;;19.75;;
12880;SDS011;6508;53.786;9.996;2024-02-15T14:40:56;41.88;;;21.48;;
12880;SDS011;6508;53.786;9.996;2024-02-15T14:43:27;39.60;;;20.88;;
12880;SDS011;6508;53.786;9.996;2024-02-15T14:45:55;32.97;;;19.65;;
12880;SDS011;6508;53.786;9.996;2024-02-15T14:48:26;35.97;;;20.40;;
12880;SDS011;6508;53.786;9.996;2024-02-15T14:50:54;34.08;;;18.23;;
12880;SDS011;6508;53.786;9.996;2024-02-15T14:53:23;36.72;;;19.45;;
12880;SDS011;6508;53.786;9.996;2024-02-15T14:55:51;37.00;;;19.27;;
12880;SDS011;6508;53.786;9.996;2024-02-15T14:58:19;38.17;;;20.00;;